Time;durP1;ratioP1;P1;durP2;ratioP2;P2;SDS_P1;SDS_P2;PMS_P1;PMS_P2;Temp;Humidity;BMP_temperature;BMP_pressure;BME280_temperature;BME280_humidity;BME280_pressure;Samples;Min_cycle;Max_cycle;Signal;HPM_P1;HPM_P2
2022/05/20 00:00:08;;;;;;;7.67;6.40;;;;;;;17.58;100.00;98665.47;5113323;28;20241;-69
2022/05/20 00:02:36;;;;;;;6.90;6.20;;;;;;;17.55;100.00;98648.84;5103185;28;20284;-69
2022/05/20 00:05:03;;;;;;;7.27;6.20;;;;;;;17.52;100.00;98660.66;5107582;28;20246;-69
2022/05/20 00:07:30;;;;;;;6.67;5.87;;;;;;;17.48;100.00;98661.91;5109875;28;20210;-69
2022/05/20 00:09:56;;;;;;;6.20;5.60;;;;;;;17.47;100.00;98657.53;5109538;28;20214;-69
2022/05/20 00:12:23;;;;;;;7.23;6.07;;;;;;;17.41;100.00;98660.75;5105899;28;20219;-69
2022/05/20 00:14:49;;;;;;;8.27;5.47;;;;;;;17.31;100.00;98657.16;5107212;28;20211;-69
2022/05/20 00:17:16;;;;;;;7.03;6.10;;;;;;;17.23;100.00;98654.34;5109292;28;20695;-70
2022/05/20 00:19:44;;;;;;;8.67;5.57;;;;;;;17.21;100.00;98642.94;5109283;28;20703;-70
2022/05/20 00:22:11;;;;;;;6.63;5.73;;;;;;;17.19;100.00;98644.88;5106397;28;20615;-71
2022/05/20 00:25:45;;;;;;;8.00;6.30;;;;;;;17.21;100.00;98634.94;5104757;28;20253;-71
2022/05/20 00:27:25;;;;;;;6.80;6.10;;;;;;;17.24;100.00;98639.16;5106273;28;20256;-70
2022/05/20 00:29:52;;;;;;;6.50;5.80;;;;;;;17.20;100.00;98643.06;5104826;28;20267;-70
2022/05/20 00:32:18;;;;;;;7.73;6.17;;;;;;;17.13;100.00;98634.75;5105661;28;20218;-70
2022/05/20 00:34:46;;;;;;;7.03;6.33;;;;;;;17.06;100.00;98633.59;5109009;28;20206;-70
2022/05/20 00:37:13;;;;;;;7.77;6.47;;;;;;;17.01;100.00;98638.47;5109111;28;20221;-70
2022/05/20 00:39:39;;;;;;;6.43;5.83;;;;;;;16.92;100.00;98639.28;5107610;28;20244;-70
2022/05/20 00:42:13;;;;;;;6.87;6.17;;;;;;;16.90;100.00;98640.41;5105504;28;20211;-70
2022/05/20 00:44:40;;;;;;;6.20;5.60;;;;;;;16.91;100.00;98634.94;5106920;28;20245;-70
2022/05/20 00:47:07;;;;;;;6.90;6.20;;;;;;;16.90;100.00;98635.91;5108858;28;20301;-71
2022/05/20 00:49:36;;;;;;;7.50;6.80;;;;;;;16.92;100.00;98641.09;5105116;28;20221;-71
2022/05/20 00:52:07;;;;;;;7.30;6.50;;;;;;;16.99;100.00;98628.91;5105338;28;20316;-71
2022/05/20 00:54:39;;;;;;;7.60;6.03;;;;;;;16.94;100.00;98631.16;5108636;28;20709;-70
2022/05/20 00:57:10;;;;;;;11.83;7.50;;;;;;;16.92;100.00;98617.94;5108673;28;20210;-69
2022/05/20 00:59:40;;;;;;;10.73;6.50;;;;;;;16.90;100.00;98616.38;5108751;28;20238;-70
2022/05/20 01:02:11;;;;;;;6.83;6.13;;;;;;;16.89;100.00;98612.00;5111409;28;20217;-70
2022/05/20 01:04:38;;;;;;;7.77;6.73;;;;;;;16.85;100.00;98616.78;5105312;28;20218;-70
2022/05/20 01:07:08;;;;;;;7.43;6.00;;;;;;;16.82;100.00;98622.38;5108432;28;20218;-70
2022/05/20 01:09:37;;;;;;;6.63;6.00;;;;;;;16.79;100.00;98614.63;5107657;28;20218;-70
2022/05/20 01:12:05;;;;;;;7.33;6.63;;;;;;;16.76;100.00;98617.56;5111217;28;20238;-70
2022/05/20 01:14:32;;;;;;;7.13;6.43;;;;;;;16.70;100.00;98620.75;5112062;28;20220;-70
2022/05/20 01:16:58;;;;;;;6.83;6.00;;;;;;;16.65;100.00;98622.97;5110152;28;20210;-70
2022/05/20 01:19:35;;;;;;;7.00;6.30;;;;;;;16.61;100.00;98613.56;5111834;28;20234;-70
2022/05/20 01:22:01;;;;;;;7.30;6.40;;;;;;;16.60;100.00;98611.00;5105670;28;20214;-70
2022/05/20 01:24:29;;;;;;;6.93;6.33;;;;;;;16.55;100.00;98614.09;5108050;28;20699;-70
2022/05/20 01:26:56;;;;;;;7.27;6.57;;;;;;;16.53;100.00;98616.00;5106159;28;20224;-70
2022/05/20 01:29:22;;;;;;;9.20;7.10;;;;;;;16.54;100.00;98615.06;5096894;28;20210;-70
2022/05/20 01:31:49;;;;;;;6.97;6.37;;;;;;;16.56;100.00;98620.25;5105757;28;20210;-71
2022/05/20 01:34:16;;;;;;;7.33;6.53;;;;;;;16.53;100.00;98610.69;5102645;28;20226;-70
2022/05/20 01:36:42;;;;;;;7.83;7.03;;;;;;;16.49;100.00;98611.94;5103456;28;20222;-70
2022/05/20 01:39:09;;;;;;;6.53;5.93;;;;;;;16.44;100.00;98616.81;5106720;28;20234;-70
2022/05/20 01:41:42;;;;;;;7.63;6.87;;;;;;;16.45;100.00;98613.16;5104421;28;20556;-70
2022/05/20 01:44:14;;;;;;;6.93;6.27;;;;;;;16.46;100.00;98604.19;5102385;28;20234;-70
2022/05/20 01:46:44;;;;;;;7.20;6.50;;;;;;;16.44;100.00;98611.47;5105213;28;20214;-70
2022/05/20 01:49:26;;;;;;;7.03;6.33;;;;;;;16.44;100.00;98602.63;5106622;28;20222;-70
2022/05/20 01:52:03;;;;;;;8.17;7.30;;;;;;;16.47;100.00;98605.88;5104196;28;20582;-70
2022/05/20 01:54:38;;;;;;;8.20;7.03;;;;;;;16.43;100.00;98599.13;5111189;28;20583;-70
2022/05/20 01:57:11;;;;;;;7.57;6.77;;;;;;;16.37;100.00;98594.28;5109797;28;20209;-70
2022/05/20 01:59:42;;;;;;;8.60;7.70;;;;;;;16.33;100.00;98598.16;5110591;28;20245;-70
2022/05/20 02:02:12;;;;;;;8.13;7.27;;;;;;;16.29;100.00;98602.09;5111158;28;20214;-70
2022/05/20 02:04:44;;;;;;;10.37;8.70;;;;;;;16.28;100.00;98600.38;5111122;28;20218;-70
2022/05/20 02:07:16;;;;;;;9.10;7.73;;;;;;;16.31;100.00;98610.78;5106361;28;20210;-70
2022/05/20 02:09:48;;;;;;;7.73;7.00;;;;;;;16.28;100.00;98603.03;5110878;28;20255;-70
2022/05/20 02:12:20;;;;;;;7.57;6.83;;;;;;;16.23;100.00;98607.94;5110803;28;20210;-70
2022/05/20 02:14:52;;;;;;;7.53;6.77;;;;;;;16.18;100.00;98604.81;5106210;28;20210;-70
2022/05/20 02:17:24;;;;;;;7.80;7.00;;;;;;;16.13;100.00;98607.00;5102522;28;20214;-70
2022/05/20 02:19:58;;;;;;;8.40;6.97;;;;;;;16.12;100.00;98599.13;5102619;28;20234;-69
2022/05/20 02:22:28;;;;;;;7.40;6.70;;;;;;;16.11;100.00;98600.13;5106036;28;20214;-70
2022/05/20 02:24:56;;;;;;;7.83;7.07;;;;;;;16.08;100.00;98609.22;5104961;28;20244;-70
2022/05/20 02:27:27;;;;;;;9.10;7.27;;;;;;;16.06;100.00;98609.50;5102218;28;20214;-69
2022/05/20 02:30:01;;;;;;;7.57;6.87;;;;;;;16.04;100.00;98602.44;5101995;28;20206;-70
2022/05/20 02:32:31;;;;;;;9.13;7.47;;;;;;;16.01;100.00;98606.34;5104395;28;20206;-70
2022/05/20 02:34:58;;;;;;;9.30;7.87;;;;;;;16.02;100.00;98604.41;5105361;28;20278;-70
2022/05/20 02:37:28;;;;;;;8.50;7.57;;;;;;;16.08;100.00;98607.53;5106955;28;20210;-70
2022/05/20 02:39:55;;;;;;;9.63;8.17;;;;;;;16.12;100.00;98606.31;5103487;28;20250;-70
2022/05/20 02:42:22;;;;;;;10.90;9.00;;;;;;;16.15;100.00;98599.72;5105203;28;20219;-71
2022/05/20 02:44:50;;;;;;;9.27;8.43;;;;;;;16.13;100.00;98599.00;5106795;28;20246;-71
2022/05/20 02:47:17;;;;;;;9.77;8.20;;;;;;;16.15;100.00;98602.38;5107005;28;20210;-70
2022/05/20 02:49:43;;;;;;;8.93;8.03;;;;;;;16.21;100.00;98598.38;5105920;28;20680;-70
2022/05/20 02:52:10;;;;;;;9.07;8.17;;;;;;;16.22;100.00;98600.88;5108585;28;20664;-70
2022/05/20 02:54:37;;;;;;;10.57;8.50;;;;;;;16.18;100.00;98604.81;5111025;28;20683;-70
2022/05/20 02:57:04;;;;;;;9.17;8.27;;;;;;;16.15;100.00;98601.56;5111297;28;20210;-70
2022/05/20 03:04:59;;;;;;;8.87;7.97;;;;;;;16.02;100.00;98608.03;5111122;28;20233;-70
2022/05/20 03:07:26;;;;;;;9.30;8.30;;;;;;;16.00;100.00;98612.66;5107211;28;20226;-70
2022/05/20 03:09:52;;;;;;;9.07;8.17;;;;;;;16.00;100.00;98602.81;5108712;28;20219;-70
2022/05/20 03:12:19;;;;;;;11.37;8.53;;;;;;;16.00;100.00;98604.66;5110651;28;20736;-70
2022/05/20 03:14:45;;;;;;;9.23;8.33;;;;;;;16.00;100.00;98607.34;5111058;28;20214;-70
2022/05/20 03:17:12;;;;;;;9.43;8.53;;;;;;;15.98;100.00;98600.28;5107549;28;20686;-70
2022/05/20 03:19:40;;;;;;;9.97;8.30;;;;;;;15.96;100.00;98603.22;5107511;28;20241;-70
2022/05/20 03:22:07;;;;;;;9.63;8.33;;;;;;;16.00;100.00;98599.34;5110397;28;20671;-70
2022/05/20 03:24:35;;;;;;;9.03;8.20;;;;;;;16.07;100.00;98605.84;5110707;28;20224;-70
2022/05/20 03:27:02;;;;;;;9.13;8.23;;;;;;;16.12;100.00;98603.66;5106574;28;20210;-70
2022/05/20 03:29:29;;;;;;;9.07;8.00;;;;;;;16.13;100.00;98605.31;5106200;28;20256;-71
2022/05/20 03:31:56;;;;;;;8.73;7.80;;;;;;;16.13;100.00;98605.31;5112373;28;20214;-70
2022/05/20 03:34:23;;;;;;;9.87;7.80;;;;;;;16.13;100.00;98604.34;5113682;28;20220;-71
2022/05/20 03:36:51;;;;;;;8.67;7.77;;;;;;;16.15;100.00;98606.91;5113618;28;20217;-71
2022/05/20 03:39:20;;;;;;;10.67;7.67;;;;;;;16.17;100.00;98600.47;5112741;28;20324;-70
2022/05/20 03:41:48;;;;;;;8.63;7.73;;;;;;;16.20;100.00;98602.84;5112474;28;20215;-71
2022/05/20 03:44:16;;;;;;;10.43;7.50;;;;;;;16.22;100.00;98611.56;5113801;28;20320;-71
2022/05/20 03:46:44;;;;;;;8.33;7.50;;;;;;;16.26;100.00;98613.00;5113799;28;20721;-70
2022/05/20 03:49:12;;;;;;;8.10;7.30;;;;;;;16.32;100.00;98614.28;5112428;28;20222;-70
2022/05/20 03:51:38;;;;;;;8.67;7.87;;;;;;;16.38;100.00;98612.00;5110700;28;20246;-70
2022/05/20 03:54:07;;;;;;;8.87;7.97;;;;;;;16.41;100.00;98611.72;5113568;28;20221;-71
2022/05/20 03:56:33;;;;;;;8.60;7.70;;;;;;;16.46;100.00;98604.19;5113463;28;20218;-71
2022/05/20 03:59:00;;;;;;;7.83;7.10;;;;;;;16.52;100.00;98609.00;5112263;28;20210;-71
2022/05/20 04:04:11;;;;;;;8.20;7.40;;;;;;;16.68;100.00;98604.03;5113241;28;20213;-71
2022/05/20 04:06:38;;;;;;;8.63;7.73;;;;;;;16.70;100.00;98610.09;5113442;28;20221;-70
2022/05/20 04:09:06;;;;;;;7.80;7.10;;;;;;;16.72;100.00;98600.13;5110465;28;20242;-70
2022/05/20 04:11:33;;;;;;;8.00;7.20;;;;;;;16.71;100.00;98603.75;5113275;28;20221;-71
2022/05/20 04:13:59;;;;;;;8.60;7.40;;;;;;;16.73;100.00;98603.63;5113229;28;20206;-69
2022/05/20 04:16:26;;;;;;;9.07;8.17;;;;;;;16.76;100.00;98598.88;5113146;28;20218;-70
2022/05/20 04:18:52;;;;;;;10.10;8.63;;;;;;;16.77;100.00;98600.56;5108109;28;20218;-70
2022/05/20 04:21:19;;;;;;;9.83;8.83;;;;;;;16.81;100.00;98595.78;5112799;28;20238;-69
2022/05/20 04:23:45;;;;;;;9.57;8.57;;;;;;;16.81;100.00;98604.66;5112670;28;20636;-70
2022/05/20 04:26:14;;;;;;;9.70;8.47;;;;;;;16.82;100.00;98608.19;5113031;28;20581;-70
2022/05/20 04:28:40;;;;;;;10.47;7.77;;;;;;;16.77;100.00;98597.88;5103683;28;20207;-70
2022/05/20 04:31:09;;;;;;;9.20;7.73;;;;;;;16.71;100.00;98603.75;5105228;28;20578;-71
2022/05/20 04:33:36;;;;;;;8.20;7.13;;;;;;;16.68;100.00;98604.03;5112812;28;20221;-71
2022/05/20 04:36:03;;;;;;;8.63;6.97;;;;;;;16.66;100.00;98594.47;5112801;28;20206;-71
2022/05/20 04:38:29;;;;;;;8.50;7.23;;;;;;;16.69;100.00;98589.72;5109953;28;20210;-71
2022/05/20 04:49:11;;;;;;;7.70;6.80;;;;;;;16.84;100.00;98585.72;5096734;28;20276;-69
2022/05/20 04:51:39;;;;;;;10.00;7.30;;;;;;;16.93;100.00;98598.25;5106956;28;20213;-70
2022/05/20 04:56:50;;;;;;;9.53;8.60;;;;;;;17.18;100.00;98597.78;5105950;28;20259;-70
2022/05/20 04:59:20;;;;;;;9.37;8.47;;;;;;;17.33;100.00;98596.44;5111977;28;20221;-69
2022/05/20 05:01:46;;;;;;;8.73;7.70;;;;;;;17.45;100.00;98595.38;5112049;28;20214;-69
2022/05/20 05:04:13;;;;;;;8.97;8.10;;;;;;;17.63;100.00;98593.69;5109352;28;20610;-70
2022/05/20 05:06:39;;;;;;;8.87;7.60;;;;;;;17.80;100.00;98589.50;5112174;28;20210;-71
2022/05/20 05:09:06;;;;;;;7.83;7.03;;;;;;;18.03;100.00;98602.47;5110313;28;20210;-71
2022/05/20 05:11:32;;;;;;;7.97;7.17;;;;;;;18.26;100.00;98585.13;5111039;28;20217;-71
2022/05/20 05:13:59;;;;;;;7.30;6.43;;;;;;;18.67;100.00;98595.53;5109128;28;20221;-71
2022/05/20 05:16:27;;;;;;;7.10;6.40;;;;;;;19.27;100.00;98595.00;5111870;28;20214;-71
2022/05/20 05:18:53;;;;;;;7.50;6.70;;;;;;;19.81;100.00;98597.66;5111664;28;20609;-72
2022/05/20 05:21:20;;;;;;;8.07;6.70;;;;;;;20.51;100.00;98605.72;5111846;28;20238;-71
2022/05/20 05:23:47;;;;;;;7.47;5.93;;;;;;;21.37;100.00;98608.25;5108976;28;20221;-71
2022/05/20 05:26:13;;;;;;;6.13;5.50;;;;;;;22.18;100.00;98610.19;5111818;28;20237;-71
2022/05/20 05:28:40;;;;;;;7.13;5.60;;;;;;;22.83;97.22;98609.19;5105221;28;20211;-71
2022/05/20 05:31:06;;;;;;;6.40;5.80;;;;;;;23.25;92.02;98611.63;5101461;28;20267;-70
2022/05/20 05:33:34;;;;;;;6.50;5.90;;;;;;;23.60;88.86;98612.00;5106841;28;20217;-71
2022/05/20 05:36:00;;;;;;;7.13;6.17;;;;;;;23.84;85.01;98609.16;5101186;28;20207;-70
2022/05/20 05:38:27;;;;;;;6.97;6.03;;;;;;;23.87;84.28;98613.38;5102737;28;20691;-70
2022/05/20 05:40:53;;;;;;;7.03;6.20;;;;;;;23.85;84.29;98615.41;5106370;28;20238;-70
2022/05/20 05:43:20;;;;;;;8.00;5.70;;;;;;;23.80;84.17;98623.19;5106602;28;20238;-70
2022/05/20 05:45:46;;;;;;;6.93;5.20;;;;;;;23.94;83.46;98612.53;5103405;28;20210;-70
2022/05/20 05:48:15;;;;;;;6.67;5.73;;;;;;;24.27;81.65;98619.38;5102686;28;20215;-70
2022/05/20 05:50:43;;;;;;;8.57;6.10;;;;;;;24.64;79.78;98615.91;5106318;28;20214;-70
2022/05/20 05:53:12;;;;;;;7.00;5.47;;;;;;;24.89;78.15;98618.22;5106466;28;20210;-70
2022/05/20 05:55:40;;;;;;;5.77;5.17;;;;;;;25.18;77.43;98609.31;5102906;28;20561;-70
2022/05/20 05:58:07;;;;;;;6.43;5.17;;;;;;;25.51;76.11;98608.75;5110030;28;20286;-69
2022/05/20 06:00:33;;;;;;;5.40;4.90;;;;;;;25.96;74.30;98611.22;5103792;28;20249;-70
2022/05/20 06:03:00;;;;;;;5.77;4.67;;;;;;;26.10;72.81;98615.75;5104092;28;20215;-70
2022/05/20 06:05:27;;;;;;;5.90;5.30;;;;;;;26.10;72.05;98621.16;5107584;28;20210;-70
2022/05/20 06:07:54;;;;;;;6.73;5.33;;;;;;;25.98;72.16;98616.44;5107589;28;20214;-70
2022/05/20 06:10:22;;;;;;;5.57;4.90;;;;;;;25.98;71.43;98614.56;5103797;28;20221;-70
2022/05/20 06:12:48;;;;;;;6.73;5.57;;;;;;;26.15;70.60;98605.19;5105204;28;20237;-70
2022/05/20 06:15:18;;;;;;;5.93;5.43;;;;;;;26.42;69.71;98604.44;5107514;28;20206;-71
2022/05/20 06:17:45;;;;;;;7.03;5.50;;;;;;;26.48;69.28;98602.81;5107268;28;20216;-71
2022/05/20 06:20:12;;;;;;;8.07;5.53;;;;;;;26.61;69.30;98609.22;5106859;28;20234;-70
2022/05/20 06:22:39;;;;;;;5.53;5.03;;;;;;;26.81;67.77;98604.78;5105035;28;20215;-73
2022/05/20 06:25:08;;;;;;;5.60;5.10;;;;;;;27.14;65.99;98601.28;5107127;28;20213;-72
2022/05/20 06:27:35;;;;;;;5.83;5.03;;;;;;;27.53;64.36;98606.16;5105118;28;20214;-72
2022/05/20 06:30:03;;;;;;;6.43;4.63;;;;;;;27.87;62.65;98611.53;5099743;28;20245;-73
2022/05/20 06:32:29;;;;;;;5.27;4.77;;;;;;;28.22;61.03;98607.69;5105791;28;20213;-73
2022/05/20 06:40:37;;;;;;;5.67;4.43;;;;;;;28.99;54.88;98608.88;5094837;28;20447;-73
2022/05/20 06:43:05;;;;;;;6.80;5.00;;;;;;;29.06;55.42;98615.13;5108404;28;20272;-73
2022/05/20 06:45:32;;;;;;;5.13;4.37;;;;;;;29.09;56.54;98612.00;5108941;28;20214;-74
2022/05/20 06:47:59;;;;;;;5.57;4.73;;;;;;;28.97;56.57;98606.34;5109223;28;20218;-73
2022/05/20 06:50:26;;;;;;;5.07;4.53;;;;;;;28.73;57.84;98596.06;5103039;28;20214;-72
2022/05/20 06:52:52;;;;;;;7.63;5.13;;;;;;;28.29;58.11;98608.53;5105151;28;20213;-72
2022/05/20 06:55:18;;;;;;;6.43;4.70;;;;;;;27.49;59.82;98607.56;5103516;28;20216;-73
2022/05/20 06:57:46;;;;;;;4.90;4.40;;;;;;;26.60;63.94;98595.84;5101917;28;20214;-72
2022/05/20 07:00:14;;;;;;;5.33;4.60;;;;;;;25.86;66.58;98597.13;5105192;28;20292;-73
2022/05/20 07:02:41;;;;;;;6.70;4.60;;;;;;;25.38;69.83;98597.75;5105666;28;20220;-72
2022/05/20 07:05:09;;;;;;;8.13;5.13;;;;;;;25.08;71.11;98600.59;5104355;28;20206;-74
2022/05/20 07:07:35;;;;;;;5.97;4.50;;;;;;;24.91;73.05;98599.94;5101535;28;20260;-74
2022/05/20 07:10:02;;;;;;;6.40;4.70;;;;;;;24.84;73.26;98592.75;5105172;28;20206;-74
2022/05/20 07:12:28;;;;;;;5.40;4.70;;;;;;;24.79;75.25;98601.41;5105584;28;20206;-74
2022/05/20 07:14:56;;;;;;;5.13;4.73;;;;;;;24.77;75.45;98598.06;5104435;28;20217;-74
2022/05/20 07:17:23;;;;;;;5.30;4.80;;;;;;;24.76;75.39;98595.53;5101742;28;20207;-74
2022/05/20 07:19:51;;;;;;;5.90;5.30;;;;;;;24.77;75.11;98598.06;5103203;28;20218;-73
2022/05/20 07:22:17;;;;;;;5.63;5.00;;;;;;;24.84;75.50;98593.59;5105523;28;20246;-76
2022/05/20 07:24:44;;;;;;;5.27;4.73;;;;;;;24.90;76.16;98590.16;5104494;28;20687;-74
2022/05/20 07:27:11;;;;;;;6.53;4.87;;;;;;;24.96;75.57;98583.16;5101655;28;20210;-73
2022/05/20 07:29:38;;;;;;;6.13;4.90;;;;;;;25.05;76.18;98591.00;5096807;28;20211;-73
2022/05/20 07:32:07;;;;;;;6.70;5.03;;;;;;;25.12;75.50;98586.50;5101461;28;20211;-73
2022/05/20 07:34:33;;;;;;;6.80;4.90;;;;;;;25.12;71.89;98591.91;5109217;28;20214;-73
2022/05/20 07:37:00;;;;;;;7.07;5.07;;;;;;;25.19;72.44;98576.66;5112356;28;20289;-73
2022/05/20 07:39:26;;;;;;;8.33;4.73;;;;;;;25.31;73.60;98574.34;5109637;28;20210;-74
2022/05/20 07:41:53;;;;;;;6.27;4.60;;;;;;;25.37;73.07;98569.00;5105001;28;20233;-73
2022/05/20 07:44:20;;;;;;;6.90;4.63;;;;;;;25.42;73.82;98571.97;5111949;28;20278;-73
2022/05/20 07:46:46;;;;;;;5.90;5.00;;;;;;;25.53;73.10;98574.22;5110461;28;20222;-74
2022/05/20 07:49:15;;;;;;;5.63;4.60;;;;;;;25.69;72.53;98573.16;5109982;28;20217;-73
2022/05/20 07:51:45;;;;;;;5.20;4.30;;;;;;;25.78;70.95;98564.72;5111622;28;20301;-74
2022/05/20 07:54:15;;;;;;;5.30;4.57;;;;;;;25.91;71.69;98567.59;5111873;28;20210;-74
2022/05/20 07:56:49;;;;;;;5.37;4.87;;;;;;;26.02;70.15;98569.81;5112177;28;20217;-74
2022/05/20 07:59:19;;;;;;;5.77;4.17;;;;;;;26.13;69.87;98572.03;5105623;28;20214;-72
2022/05/20 08:01:49;;;;;;;5.37;4.43;;;;;;;26.21;68.16;98573.78;5108554;28;20260;-73
2022/05/20 08:07:06;;;;;;;7.47;4.70;;;;;;;26.39;65.01;98569.56;5108235;28;20212;-72
2022/05/20 08:09:33;;;;;;;4.80;4.30;;;;;;;26.51;66.36;98564.47;5108538;28;20226;-72
2022/05/20 08:12:01;;;;;;;8.03;4.77;;;;;;;26.72;65.45;98568.00;5105078;28;20214;-73
2022/05/20 08:14:28;;;;;;;8.33;4.80;;;;;;;26.82;66.61;98559.53;5104801;28;20226;-74
2022/05/20 08:16:57;;;;;;;6.63;5.03;;;;;;;26.92;64.31;98552.72;5108125;28;20210;-74
2022/05/20 08:19:25;;;;;;;5.23;4.63;;;;;;;27.03;66.11;98549.44;5108331;28;20217;-74
2022/05/20 08:21:51;;;;;;;4.27;3.87;;;;;;;27.12;61.50;98537.38;5106293;28;20233;-74
2022/05/20 08:24:18;;;;;;;4.20;3.80;;;;;;;27.14;57.42;98536.16;5104508;28;20218;-76
2022/05/20 08:26:44;;;;;;;4.60;4.10;;;;;;;27.13;54.07;98539.91;5107852;28;20221;-73
2022/05/20 08:29:12;;;;;;;5.03;3.80;;;;;;;27.21;56.25;98538.94;5105285;28;20214;-73
2022/05/20 08:31:39;;;;;;;4.30;3.90;;;;;;;27.30;53.81;98534.19;5106943;28;20339;-72
2022/05/20 08:34:05;;;;;;;6.57;4.07;;;;;;;27.34;53.92;98530.88;5103957;28;20221;-74
2022/05/20 08:36:35;;;;;;;6.93;4.03;;;;;;;27.45;51.98;98524.88;5107202;28;20221;-73
2022/05/20 08:39:02;;;;;;;5.05;3.85;;;;;;;27.56;53.10;98532.41;5106311;28;20235;-73
2022/05/20 08:41:32;;;;;;;4.90;4.00;;;;;;;27.66;55.93;98524.72;5106661;28;20229;-73
2022/05/20 08:43:59;;;;;;;4.95;4.03;;;;;;;27.79;57.92;98519.34;5103976;28;20238;-73
2022/05/20 08:46:25;;;;;;;5.70;4.43;;;;;;;27.92;56.81;98530.25;5106430;28;20213;-73
2022/05/20 08:48:54;;;;;;;5.55;4.30;;;;;;;28.01;53.62;98515.44;5107663;28;20214;-73
2022/05/20 08:51:22;;;;;;;5.80;4.45;;;;;;;28.21;56.52;98516.31;5106408;28;20218;-73
2022/05/20 08:53:51;;;;;;;4.35;3.95;;;;;;;28.26;52.96;98517.34;5104052;28;20211;-73
2022/05/20 08:56:20;;;;;;;5.70;4.10;;;;;;;28.30;53.89;98512.34;5105046;28;20225;-73
2022/05/20 08:58:52;;;;;;;6.15;4.20;;;;;;;28.42;54.83;98516.16;5102486;28;20298;-75
2022/05/20 09:01:27;;;;;;;5.45;4.53;;;;;;;28.40;53.51;98510.06;5104773;28;20238;-73
2022/05/20 09:03:54;;;;;;;6.32;4.78;;;;;;;28.50;52.26;98507.78;5105670;28;20210;-72
2022/05/20 09:06:20;;;;;;;4.47;4.07;;;;;;;28.57;51.14;98503.16;5101580;28;20766;-73
2022/05/20 09:09:05;;;;;;;5.43;4.10;;;;;;;28.74;49.64;98497.06;5101891;28;20222;-73
2022/05/20 09:11:31;;;;;;;4.68;4.05;;;;;;;28.82;48.33;98496.84;5102324;28;20214;-73
2022/05/20 09:16:58;;;;;;;4.75;3.65;;;;;;;28.91;46.98;98489.31;5103170;28;20472;-74
2022/05/20 09:19:27;;;;;;;6.70;3.92;;;;;;;28.82;43.64;98485.13;5105767;28;20214;-73
2022/05/20 09:22:02;;;;;;;5.78;3.50;;;;;;;28.87;45.31;98493.50;5104514;28;20306;-73
2022/05/20 09:24:38;;;;;;;4.18;3.60;;;;;;;28.95;45.91;98485.97;5107125;28;20259;-73
2022/05/20 09:27:06;;;;;;;4.60;3.50;;;;;;;29.05;46.22;98490.97;5099703;28;20209;-74
2022/05/20 09:29:38;;;;;;;4.50;3.90;;;;;;;29.20;47.87;98478.78;5102193;28;20266;-76
2022/05/20 09:32:07;;;;;;;4.40;3.70;;;;;;;29.35;47.73;98471.16;5101517;28;20245;-74
2022/05/20 09:34:36;;;;;;;6.20;4.03;;;;;;;29.35;46.21;98464.88;5109890;28;20301;-74
2022/05/20 09:37:06;;;;;;;5.70;3.92;;;;;;;29.35;45.18;98460.25;5109903;28;20683;-74
2022/05/20 09:39:36;;;;;;;8.60;4.35;;;;;;;29.22;43.31;98459.50;5106968;28;20207;-74
2022/05/20 09:42:15;;;;;;;5.18;3.80;;;;;;;29.18;43.53;98453.66;5110113;28;20264;-74
2022/05/20 09:44:44;;;;;;;4.28;3.88;;;;;;;29.16;44.95;98449.47;5110149;28;20272;-74
2022/05/20 09:47:19;;;;;;;4.20;3.80;;;;;;;29.22;46.25;98454.06;5108158;28;20209;-74
2022/05/20 09:49:52;;;;;;;4.55;4.05;;;;;;;29.12;44.05;98446.34;5102448;28;20220;-73
2022/05/20 09:52:24;;;;;;;7.60;4.03;;;;;;;29.16;43.66;98444.84;5109715;28;20210;-73
2022/05/20 09:55:01;;;;;;;4.40;3.60;;;;;;;29.18;43.28;98450.09;5109673;28;20589;-73
2022/05/20 09:57:31;;;;;;;6.22;3.88;;;;;;;29.25;44.71;98442.72;5106794;28;20214;-73
2022/05/20 10:00:04;;;;;;;5.35;4.30;;;;;;;29.32;45.56;98443.53;5109842;28;20271;-73
2022/05/20 10:02:35;;;;;;;5.15;4.05;;;;;;;29.35;43.85;98451.28;5099348;28;20703;-74
2022/05/20 10:05:11;;;;;;;4.82;3.90;;;;;;;29.45;44.46;98443.44;5104347;28;20703;-74
2022/05/20 10:07:51;;;;;;;4.95;3.95;;;;;;;29.44;43.73;98441.78;5100950;28;20210;-73
2022/05/20 10:10:38;;;;;;;4.70;4.07;;;;;;;29.53;44.84;98430.44;5098890;28;20214;-74
2022/05/20 10:13:08;;;;;;;3.75;3.40;;;;;;;29.46;43.39;98424.19;5104211;28;20221;-74
2022/05/20 10:15:40;;;;;;;5.15;4.22;;;;;;;29.49;44.69;98412.00;5106432;28;20296;-74
2022/05/20 10:18:16;;;;;;;4.97;4.00;;;;;;;29.55;45.25;98411.16;5102608;28;20218;-74
2022/05/20 10:20:51;;;;;;;6.22;3.95;;;;;;;29.51;44.45;98409.91;5104648;28;20694;-74
2022/05/20 10:23:29;;;;;;;6.60;4.50;;;;;;;29.54;43.89;98404.88;5101134;28;20241;-74
2022/05/20 10:26:05;;;;;;;5.38;3.80;;;;;;;29.53;43.67;98408.66;5109559;28;20210;-74
2022/05/20 10:34:43;;;;;;;4.68;3.95;;;;;;;29.81;45.18;98400.09;5047241;28;20215;-74
2022/05/20 10:37:22;;;;;;;4.78;4.25;;;;;;;29.94;45.47;98395.38;5037787;28;20654;-74
2022/05/20 10:40:17;;;;;;;5.45;4.10;;;;;;;30.11;44.52;98395.69;5066485;28;20210;-74
2022/05/20 10:43:06;;;;;;;6.18;4.20;;;;;;;30.23;43.88;98391.19;5104811;28;20237;-75
2022/05/20 10:48:46;;;;;;;6.30;3.95;;;;;;;30.32;42.96;98387.13;5105688;28;20435;-74
2022/05/20 10:51:30;;;;;;;4.55;3.22;;;;;;;30.39;40.69;98390.63;5103888;28;20623;-74
2022/05/20 10:54:04;;;;;;;6.15;3.53;;;;;;;30.32;39.18;98370.75;5102928;28;20211;-74
2022/05/20 10:56:48;;;;;;;6.18;3.80;;;;;;;30.27;40.96;98367.84;5105789;28;20606;-74
2022/05/20 10:59:32;;;;;;;6.57;3.80;;;;;;;30.32;38.04;98359.84;5107296;28;20214;-74
2022/05/20 11:02:12;;;;;;;6.13;4.18;;;;;;;30.36;38.61;98367.34;5106542;28;20249;-74
2022/05/20 11:04:59;;;;;;;4.35;3.22;;;;;;;30.48;38.72;98359.25;5103101;28;20210;-74
2022/05/20 11:07:40;;;;;;;5.15;3.63;;;;;;;30.61;39.91;98359.09;5099248;28;20338;-74
2022/05/20 11:10:25;;;;;;;4.22;3.83;;;;;;;30.70;39.72;98363.22;5105100;28;20592;-75
2022/05/20 11:13:01;;;;;;;6.88;4.88;;;;;;;30.96;40.65;98352.84;5108953;28;20294;-73
2022/05/20 11:15:40;;;;;;;4.53;4.13;;;;;;;30.98;40.83;98347.97;5104188;28;20695;-74
2022/05/20 11:18:29;;;;;;;7.40;4.30;;;;;;;30.90;40.71;98337.38;5108693;28;20210;-74
2022/05/20 11:21:15;;;;;;;5.63;4.35;;;;;;;31.00;41.11;98325.91;5107161;28;20218;-74
2022/05/20 11:24:12;;;;;;;9.05;4.72;;;;;;;31.26;40.64;98320.09;5108484;28;20214;-74
2022/05/20 11:27:06;;;;;;;5.90;4.30;;;;;;;31.64;37.20;98306.88;5108449;28;20214;-74
2022/05/20 11:29:48;;;;;;;6.53;4.22;;;;;;;31.95;36.65;98307.44;5100471;28;20249;-74
2022/05/20 11:32:27;;;;;;;5.10;3.92;;;;;;;32.07;35.69;98297.34;5107234;28;20214;-74
2022/05/20 11:35:11;;;;;;;6.50;4.35;;;;;;;32.00;39.07;98285.69;5101986;28;20671;-75
2022/05/20 11:37:54;;;;;;;5.93;4.22;;;;;;;31.81;40.50;98275.94;5106778;28;20210;-75
2022/05/20 11:40:49;;;;;;;6.75;4.40;;;;;;;31.76;37.75;98272.25;5108706;28;20214;-75
2022/05/20 11:43:41;;;;;;;7.32;4.00;;;;;;;31.64;39.02;98260.44;5102850;28;20250;-75
2022/05/20 11:46:22;;;;;;;6.88;4.10;;;;;;;31.57;38.20;98246.03;5099865;28;20301;-74
2022/05/20 11:49:07;;;;;;;5.05;3.95;;;;;;;31.45;38.28;98245.19;5100347;28;20206;-75
2022/05/20 11:52:01;;;;;;;5.63;4.10;;;;;;;31.35;38.93;98236.75;5106804;28;20210;-73
2022/05/20 11:54:34;;;;;;;4.38;3.95;;;;;;;31.43;40.26;98237.22;5104136;28;20242;-75
2022/05/20 11:57:05;;;;;;;5.28;3.65;;;;;;;31.51;40.57;98231.44;5107161;28;20206;-75
2022/05/20 11:59:39;;;;;;;4.22;3.70;;;;;;;31.47;40.21;98241.16;5104412;28;20218;-73
2022/05/20 12:02:10;;;;;;;4.85;4.15;;;;;;;31.41;40.60;98222.97;5112019;28;20252;-74
2022/05/20 12:04:41;;;;;;;6.68;4.63;;;;;;;31.41;41.43;98224.91;5111916;28;20213;-74
2022/05/20 12:07:11;;;;;;;5.20;4.70;;;;;;;31.33;41.42;98222.50;5106201;28;20210;-73
2022/05/20 12:09:40;;;;;;;6.15;4.57;;;;;;;31.28;41.61;98211.44;5106707;28;20210;-74
2022/05/20 12:12:13;;;;;;;4.70;4.28;;;;;;;31.31;41.13;98208.25;5108221;28;20224;-73
2022/05/20 12:14:59;;;;;;;5.80;4.50;;;;;;;31.27;40.91;98194.22;5110280;28;20217;-74
2022/05/20 12:17:31;;;;;;;6.20;4.50;;;;;;;31.34;40.31;98185.91;5106096;28;20214;-73
2022/05/20 12:25:45;;;;;;;6.53;4.45;;;;;;;31.32;41.33;98166.19;5111524;28;20218;-74
2022/05/20 12:28:31;;;;;;;6.05;4.53;;;;;;;31.50;41.60;98157.88;5105885;28;20691;-73